Time;durP1;ratioP1;P1;durP2;ratioP2;P2;SDS_P1;SDS_P2;PMS_P1;PMS_P2;Temp;Humidity;BMP_temperature;BMP_pressure;BME280_temperature;BME280_humidity;BME280_pressure;Samples;Min_cycle;Max_cycle;Signal;HPM_P1;HPM_P2
2023/04/02 00:02:22;;;;;;;16.88;15.05;;;;;;;9.98;100.00;98792.94;5009459;28;20036;-75
2023/04/02 00:05:15;;;;;;;21.42;16.58;;;;;;;9.96;100.00;98788.63;5008615;28;20038;-75
2023/04/02 00:07:43;;;;;;;16.23;14.52;;;;;;;9.94;100.00;98789.50;4994158;28;20129;-75
2023/04/02 00:10:30;;;;;;;16.65;13.18;;;;;;;9.98;100.00;98795.56;5008941;28;20490;-76
2023/04/02 00:13:30;;;;;;;17.80;13.00;;;;;;;9.72;100.00;98762.97;5008382;28;20088;-77
2023/04/02 00:15:58;;;;;;;14.85;12.02;;;;;;;9.64;100.00;98783.22;4994994;28;20045;-75
2023/04/02 00:18:25;;;;;;;13.30;8.68;;;;;;;9.54;100.00;98773.84;5006786;28;20862;-73
2023/04/02 00:21:09;;;;;;;16.55;9.27;;;;;;;9.66;100.00;98809.38;5006814;28;20605;-76
2023/04/02 00:23:38;;;;;;;9.13;6.35;;;;;;;9.48;100.00;98785.34;5005390;28;20066;-76
2023/04/02 00:26:20;;;;;;;11.02;6.72;;;;;;;8.91;100.00;98704.56;4987339;28;20030;-76
2023/04/02 00:28:45;;;;;;;7.68;4.82;;;;;;;9.44;100.00;98791.53;5002475;28;20433;-75
2023/04/02 00:31:11;;;;;;;7.43;4.43;;;;;;;8.70;100.00;98689.31;4993910;28;20050;-74
2023/04/02 00:33:36;;;;;;;6.82;4.18;;;;;;;9.45;100.00;98792.38;5002436;28;20136;-75
2023/04/02 00:36:05;;;;;;;9.32;4.07;;;;;;;8.90;100.00;98696.72;5007350;28;20049;-74
2023/04/02 00:38:33;;;;;;;7.97;4.50;;;;;;;8.60;100.00;98688.63;5007826;28;20046;-73
2023/04/02 00:41:02;;;;;;;10.80;4.55;;;;;;;9.41;100.00;98790.72;5008942;28;20080;-73
2023/04/02 00:43:31;;;;;;;7.55;4.05;;;;;;;8.66;100.00;98668.47;5008105;28;20084;-75
2023/04/02 00:46:02;;;;;;;7.30;3.50;;;;;;;9.25;100.00;98777.97;5008269;28;20569;-76
2023/04/02 00:48:44;;;;;;;6.38;4.70;;;;;;;8.62;100.00;98700.78;5008214;28;20580;-75
2023/04/02 00:51:23;;;;;;;8.10;3.65;;;;;;;8.99;100.00;98770.66;5008589;28;20037;-75
2023/04/02 00:53:53;;;;;;;5.28;3.67;;;;;;;8.55;100.00;98678.28;4993304;28;20084;-76
2023/04/02 00:56:28;;;;;;;5.97;4.20;;;;;;;8.60;100.00;98676.41;5007156;28;20494;-75
2023/04/02 00:58:56;;;;;;;9.20;4.03;;;;;;;8.64;100.00;98682.47;5008829;28;20121;-75
2023/04/02 01:01:28;;;;;;;7.47;3.88;;;;;;;8.42;100.00;98668.94;5008180;28;20042;-76
2023/04/02 01:03:59;;;;;;;6.38;3.72;;;;;;;8.28;100.00;98677.00;5007917;28;20092;-75
2023/04/02 01:06:33;;;;;;;6.60;3.47;;;;;;;9.21;100.00;98793.78;4997911;28;20053;-74
2023/04/02 01:09:17;;;;;;;8.02;4.22;;;;;;;9.13;100.00;98787.81;5003174;28;20100;-76
2023/04/02 01:12:09;;;;;;;7.38;4.60;;;;;;;9.04;100.00;98789.75;4990962;28;20133;-75
2023/04/02 01:14:59;;;;;;;6.18;4.15;;;;;;;9.02;100.00;98788.91;5005981;28;20121;-75
2023/04/02 01:17:53;;;;;;;13.55;4.43;;;;;;;9.14;100.00;98789.56;4990631;28;20038;-74
2023/04/02 01:20:21;;;;;;;8.52;4.10;;;;;;;9.19;100.00;98792.94;4995299;28;20048;-74
2023/04/02 01:23:02;;;;;;;7.53;4.28;;;;;;;9.18;100.00;98810.41;5006554;28;20029;-75
2023/04/02 01:25:42;;;;;;;7.07;4.95;;;;;;;9.09;100.00;98806.22;5006834;28;20058;-73
2023/04/02 01:28:35;;;;;;;8.15;4.85;;;;;;;9.14;100.00;98800.03;4995789;28;20068;-74
2023/04/02 01:31:02;;;;;;;6.80;4.43;;;;;;;8.32;100.00;98669.97;4992950;28;20058;-73
2023/04/02 01:33:32;;;;;;;6.95;4.57;;;;;;;8.95;100.00;98789.91;4996352;28;20046;-74
2023/04/02 01:36:35;;;;;;;6.55;4.40;;;;;;;9.05;100.00;98809.75;5002459;28;20097;-75
2023/04/02 01:39:04;;;;;;;7.53;4.55;;;;;;;9.10;100.00;98807.06;5007353;28;20046;-75
2023/04/02 01:41:46;;;;;;;8.70;4.72;;;;;;;9.17;100.00;98800.81;5007452;28;20510;-72
2023/04/02 01:44:31;;;;;;;6.00;4.10;;;;;;;8.97;100.00;98772.44;5005268;28;20050;-74
2023/04/02 01:46:59;;;;;;;8.82;4.28;;;;;;;9.17;100.00;98792.09;5006709;28;20033;-74
2023/04/02 01:49:26;;;;;;;9.30;4.53;;;;;;;8.44;100.00;98660.16;5005373;28;20112;-74
2023/04/02 01:51:55;;;;;;;8.88;5.15;;;;;;;8.94;100.00;98735.00;5000178;28;20042;-73
2023/04/02 01:54:22;;;;;;;9.45;4.80;;;;;;;8.70;100.00;98689.31;5006923;28;20046;-73
2023/04/02 01:56:50;;;;;;;9.93;5.82;;;;;;;8.60;100.00;98678.19;5001685;28;20553;-74
2023/04/02 01:59:21;;;;;;;9.27;6.00;;;;;;;9.23;100.00;98768.44;5003057;28;20037;-72
2023/04/02 02:02:01;;;;;;;8.48;5.75;;;;;;;9.12;100.00;98771.25;4992768;28;20057;-76
2023/04/02 02:04:28;;;;;;;9.15;6.40;;;;;;;8.38;100.00;98630.66;5001644;28;20057;-75
2023/04/02 02:06:57;;;;;;;11.70;6.95;;;;;;;9.30;100.00;98809.28;5005315;28;20104;-76
2023/04/02 02:09:26;;;;;;;12.38;6.53;;;;;;;8.38;100.00;98672.47;5004945;28;20651;-76
2023/04/02 02:11:52;;;;;;;10.90;7.03;;;;;;;9.17;100.00;98785.09;5000873;28;20057;-73
2023/04/02 02:14:22;;;;;;;8.68;6.20;;;;;;;9.29;100.00;98799.69;5007413;28;20041;-74
2023/04/02 02:16:48;;;;;;;9.40;6.45;;;;;;;9.23;100.00;98784.13;5005868;28;20037;-74
2023/04/02 02:19:35;;;;;;;14.73;6.13;;;;;;;9.26;100.00;98811.09;5007582;28;20053;-74
2023/04/02 02:22:16;;;;;;;10.50;7.95;;;;;;;9.32;100.00;98804.00;5003305;28;20045;-74
2023/04/02 02:24:43;;;;;;;8.38;6.45;;;;;;;8.59;100.00;98686.88;5007968;28;20538;-76
2023/04/02 02:27:36;;;;;;;13.23;7.82;;;;;;;9.41;100.00;98806.44;5009436;28;20046;-76
2023/04/02 02:30:21;;;;;;;11.57;6.78;;;;;;;9.29;100.00;98812.78;5009023;28;20486;-76
2023/04/02 02:33:14;;;;;;;8.38;6.20;;;;;;;8.74;100.00;98710.13;5006976;28;20050;-74
2023/04/02 02:35:51;;;;;;;9.00;6.28;;;;;;;8.96;100.00;98775.94;5004104;28;20750;-75
2023/04/02 02:38:41;;;;;;;9.07;7.15;;;;;;;9.41;100.00;98825.63;5000565;28;20038;-76
2023/04/02 02:41:43;;;;;;;12.48;8.27;;;;;;;9.33;100.00;98796.13;5004833;28;20128;-76
2023/04/02 02:44:09;;;;;;;10.32;7.85;;;;;;;9.47;100.00;98816.78;4984403;28;20037;-74
2023/04/02 02:46:38;;;;;;;9.57;8.00;;;;;;;9.46;100.00;98820.31;5009825;28;20529;-75
2023/04/02 02:49:05;;;;;;;11.23;7.40;;;;;;;9.32;100.00;98799.66;5010428;28;20046;-74
2023/04/02 02:51:42;;;;;;;9.80;8.07;;;;;;;9.41;100.00;98825.63;5014930;28;20045;-73
2023/04/02 02:54:10;;;;;;;10.95;8.38;;;;;;;8.80;100.00;98736.19;5015070;28;20046;-74
2023/04/02 02:56:43;;;;;;;9.55;7.45;;;;;;;9.38;100.00;98830.91;5000478;28;20640;-75
2023/04/02 02:59:11;;;;;;;11.75;8.77;;;;;;;8.71;100.00;98719.78;5003716;28;20056;-75
2023/04/02 03:01:37;;;;;;;9.32;7.10;;;;;;;9.16;100.00;98793.00;5010664;28;20034;-76
2023/04/02 03:04:02;;;;;;;9.88;7.85;;;;;;;9.26;100.00;98805.00;5009574;28;20065;-76
2023/04/02 03:06:28;;;;;;;12.07;9.20;;;;;;;9.38;100.00;98825.69;4999923;28;20042;-75
2023/04/02 03:09:24;;;;;;;11.48;8.65;;;;;;;8.80;100.00;98738.78;5005690;28;20099;-75
2023/04/02 03:12:07;;;;;;;10.77;8.50;;;;;;;8.72;100.00;98724.13;4989689;28;20048;-75
2023/04/02 03:14:44;;;;;;;11.87;9.03;;;;;;;8.66;100.00;98728.59;5010515;28;20088;-75
2023/04/02 03:17:24;;;;;;;10.00;7.30;;;;;;;9.41;100.00;98857.06;5001466;28;20797;-76
2023/04/02 03:19:57;;;;;;;11.18;8.48;;;;;;;9.29;100.00;98865.13;5013801;28;20056;-75
2023/04/02 03:22:34;;;;;;;13.05;8.43;;;;;;;9.29;100.00;98872.97;5009704;28;20049;-74
2023/04/02 03:25:20;;;;;;;10.57;7.93;;;;;;;8.68;100.00;98746.84;5012718;28;20508;-76
2023/04/02 03:27:50;;;;;;;10.82;7.75;;;;;;;8.87;100.00;98794.44;4999998;28;20042;-76
2023/04/02 03:30:42;;;;;;;17.13;8.32;;;;;;;9.38;100.00;98887.66;4992618;28;20136;-76
2023/04/02 03:33:18;;;;;;;10.15;7.63;;;;;;;9.29;100.00;98897.41;5009239;28;20041;-77
2023/04/02 03:35:59;;;;;;;9.77;7.80;;;;;;;9.30;100.00;98908.75;5000332;28;20125;-73
2023/04/02 03:38:29;;;;;;;11.23;7.03;;;;;;;8.62;100.00;98828.03;5008596;28;20041;-74
2023/04/02 03:41:17;;;;;;;12.40;7.97;;;;;;;9.17;100.00;98870.59;4994741;28;20041;-74
2023/04/02 03:43:46;;;;;;;11.20;8.45;;;;;;;9.35;100.00;98896.44;5009408;28;20080;-77
2023/04/02 03:46:26;;;;;;;12.95;7.43;;;;;;;8.62;100.00;98781.81;5001568;28;20165;-76
2023/04/02 03:48:54;;;;;;;12.00;7.45;;;;;;;9.15;100.00;98864.53;5007469;28;20046;-74
2023/04/02 03:51:30;;;;;;;9.60;6.88;;;;;;;8.78;100.00;98791.97;5009572;28;20053;-74
2023/04/02 03:53:56;;;;;;;13.05;6.82;;;;;;;8.72;100.00;98794.72;5009912;28;20046;-74
2023/04/02 03:56:38;;;;;;;8.75;6.43;;;;;;;9.23;100.00;98876.59;5009628;28;20077;-74
2023/04/02 03:59:31;;;;;;;8.85;6.28;;;;;;;9.48;100.00;98949.41;5004614;28;20034;-73
2023/04/02 04:02:00;;;;;;;8.20;6.57;;;;;;;9.34;100.00;98947.06;4993372;28;20034;-75
2023/04/02 04:04:28;;;;;;;13.32;6.82;;;;;;;9.11;100.00;98900.38;5007636;28;20105;-73
2023/04/02 04:06:56;;;;;;;10.75;5.32;;;;;;;8.71;100.00;98835.72;5008833;28;20409;-77
2023/04/02 04:09:21;;;;;;;10.90;6.40;;;;;;;9.45;100.00;98959.94;5009277;28;20050;-74
2023/04/02 04:12:16;;;;;;;10.10;6.28;;;;;;;9.45;100.00;98975.66;5009334;28;20049;-75
2023/04/02 04:14:51;;;;;;;8.85;6.55;;;;;;;9.19;100.00;98915.94;4981339;28;20038;-75
2023/04/02 04:17:28;;;;;;;13.35;7.75;;;;;;;9.48;100.00;98981.69;4997523;28;20639;-79
2023/04/02 04:20:27;;;;;;;9.80;5.97;;;;;;;9.32;100.00;98974.13;5009239;28;20049;-74
2023/04/02 04:22:54;;;;;;;8.27;5.90;;;;;;;8.63;100.00;98855.88;5006462;28;20152;-74
2023/04/02 04:25:28;;;;;;;10.95;7.03;;;;;;;9.37;100.00;99001.97;5008808;28;20046;-73
2023/04/02 04:28:09;;;;;;;10.68;5.75;;;;;;;9.41;100.00;99011.50;5008446;28;20091;-73
2023/04/02 04:30:58;;;;;;;8.30;5.60;;;;;;;9.52;100.00;99006.06;5008526;28;20057;-72
2023/04/02 04:33:39;;;;;;;9.25;5.82;;;;;;;9.47;100.00;99002.66;5007996;28;20141;-74
2023/04/02 04:36:18;;;;;;;7.55;5.18;;;;;;;9.42;100.00;99009.75;5001180;28;20054;-73
2023/04/02 04:38:54;;;;;;;9.57;5.32;;;;;;;9.37;100.00;98996.75;5000730;28;20048;-76
2023/04/02 04:41:33;;;;;;;7.28;5.45;;;;;;;9.46;100.00;99041.09;5008317;28;20099;-75
2023/04/02 04:44:24;;;;;;;9.55;4.70;;;;;;;9.41;100.00;99039.41;5009478;28;20477;-76
2023/04/02 04:46:59;;;;;;;8.65;4.75;;;;;;;9.44;100.00;99050.72;5008681;28;20418;-74
2023/04/02 04:49:38;;;;;;;8.73;4.88;;;;;;;8.55;100.00;98920.53;5008154;28;20510;-74
2023/04/02 04:52:31;;;;;;;8.48;4.57;;;;;;;9.24;100.00;99031.84;5007719;28;20136;-73
2023/04/02 04:54:56;;;;;;;8.10;4.90;;;;;;;9.43;100.00;99046.34;5007385;28;20049;-77
2023/04/02 04:57:35;;;;;;;8.48;4.55;;;;;;;9.33;100.00;99041.31;5008260;28;20506;-74
2023/04/02 05:00:19;;;;;;;7.72;4.05;;;;;;;9.06;100.00;99014.69;5008196;28;20124;-73
2023/04/02 05:03:02;;;;;;;;;;;;;;;9.22;100.00;99070.28;5008699;28;20088;-74
2023/04/02 05:05:32;;;;;;;8.95;5.15;;;;;;;8.93;100.00;99000.13;5006150;28;20356;-76
2023/04/02 05:08:05;;;;;;;8.50;4.85;;;;;;;9.48;100.00;99086.44;4994656;28;20033;-74
2023/04/02 05:10:42;;;;;;;7.13;4.93;;;;;;;9.43;100.00;99064.69;5008092;28;20506;-75
2023/04/02 05:13:20;;;;;;;9.35;5.40;;;;;;;9.48;100.00;99088.16;5007821;28;20494;-75
2023/04/02 05:16:00;;;;;;;7.95;4.47;;;;;;;9.56;100.00;99107.25;5006134;28;20056;-74
2023/04/02 05:18:40;;;;;;;10.15;5.00;;;;;;;8.97;100.00;99020.97;5006938;28;20422;-75
2023/04/02 05:21:45;;;;;;;7.18;5.10;;;;;;;9.07;100.00;99027.78;5007541;28;20042;-75
2023/04/02 05:24:40;;;;;;;7.68;5.68;;;;;;;9.64;100.00;99133.28;5007166;28;20133;-74
2023/04/02 05:27:36;;;;;;;7.85;5.28;;;;;;;9.78;100.00;99151.41;5001392;28;20498;-74
2023/04/02 05:30:23;;;;;;;6.35;4.70;;;;;;;10.00;100.00;99157.16;4991608;28;20149;-74
2023/04/02 05:32:56;;;;;;;6.40;4.15;;;;;;;9.86;100.00;99165.25;5007066;28;20430;-76
2023/04/02 05:35:30;;;;;;;6.90;4.20;;;;;;;9.65;100.00;99140.28;5002474;28;20100;-73
2023/04/02 05:37:57;;;;;;;8.52;4.68;;;;;;;9.75;100.00;99168.03;5010349;28;20038;-74
2023/04/02 05:40:33;;;;;;;7.45;4.70;;;;;;;9.92;100.00;99172.97;4999645;28;20062;-74
2023/04/02 05:43:00;;;;;;;9.00;5.50;;;;;;;9.86;100.00;99152.16;4999664;28;20047;-74
2023/04/02 05:45:38;;;;;;;8.70;4.40;;;;;;;10.19;100.00;99203.09;5006208;28;20045;-73
2023/04/02 05:48:18;;;;;;;7.80;5.43;;;;;;;10.14;100.00;99189.22;5009299;28;20115;-74
2023/04/02 05:50:50;;;;;;;9.40;5.35;;;;;;;9.17;100.00;99087.81;5004699;28;20038;-74
2023/04/02 05:53:20;;;;;;;7.18;4.15;;;;;;;10.15;100.00;99225.84;5006650;28;20041;-75
2023/04/02 05:56:11;;;;;;;8.98;4.95;;;;;;;10.14;100.00;99234.63;5001911;28;20034;-75
2023/04/02 05:58:48;;;;;;;7.43;5.03;;;;;;;9.75;100.00;99133.97;4998466;28;20045;-74
2023/04/02 06:01:45;;;;;;;7.70;5.18;;;;;;;10.56;100.00;99249.66;5010891;28;20054;-72
2023/04/02 06:04:26;;;;;;;12.18;5.95;;;;;;;10.43;100.00;99256.00;5006989;28;20501;-71
2023/04/02 06:07:11;;;;;;;10.82;5.00;;;;;;;9.79;100.00;99151.38;5000656;28;20053;-74
2023/04/02 06:09:42;;;;;;;9.90;5.63;;;;;;;10.58;100.00;99287.19;5002772;28;20046;-75
2023/04/02 06:12:39;;;;;;;8.52;6.22;;;;;;;10.66;100.00;99276.56;4996644;28;20636;-76
2023/04/02 06:15:09;;;;;;;8.77;5.43;;;;;;;10.51;100.00;99257.59;5004773;28;20050;-78
2023/04/02 06:17:50;;;;;;;9.60;5.93;;;;;;;10.51;100.00;99220.88;5006878;28;20835;-76
2023/04/02 06:20:18;;;;;;;11.45;6.18;;;;;;;10.92;100.00;99287.41;4999628;28;20040;-76
2023/04/02 06:22:50;;;;;;;6.40;4.28;;;;;;;10.38;100.00;99193.16;5009676;28;20060;-77
2023/04/02 06:25:31;;;;;;;7.68;5.07;;;;;;;10.49;100.00;99206.06;5009923;28;20129;-74
2023/04/02 06:28:01;;;;;;;9.52;6.40;;;;;;;11.08;100.00;99310.75;5010660;28;20046;-73
2023/04/02 06:30:32;;;;;;;9.52;6.97;;;;;;;10.77;100.00;99258.88;5010538;28;20533;-74
2023/04/02 06:32:58;;;;;;;9.57;5.70;;;;;;;11.22;100.00;99328.88;5004709;28;20081;-73
2023/04/02 06:35:23;;;;;;;7.85;4.90;;;;;;;11.01;100.00;99285.53;5004868;28;20069;-73
2023/04/02 06:37:53;;;;;;;7.68;5.05;;;;;;;11.16;100.00;99327.19;5004929;28;20475;-74
2023/04/02 06:40:30;;;;;;;9.43;4.28;;;;;;;11.13;100.00;99330.75;5004660;28;20046;-73
2023/04/02 06:42:58;;;;;;;11.07;5.85;;;;;;;10.33;100.00;99226.47;5006799;28;20046;-74
2023/04/02 06:45:34;;;;;;;9.35;4.63;;;;;;;10.86;100.00;99316.41;5008071;28;20038;-73
2023/04/02 06:48:01;;;;;;;7.40;4.72;;;;;;;10.41;100.00;99229.81;4999559;28;20061;-75
2023/04/02 06:50:44;;;;;;;6.38;4.30;;;;;;;10.35;100.00;99267.50;5004375;28;20062;-75
2023/04/02 06:53:24;;;;;;;6.32;3.65;;;;;;;10.34;100.00;99249.16;5007190;28;20051;-74
2023/04/02 06:55:51;;;;;;;7.78;4.47;;;;;;;10.39;100.00;99244.69;5002030;28;20034;-74
2023/04/02 06:58:18;;;;;;;7.68;3.92;;;;;;;10.21;100.00;99248.50;5002637;28;20073;-73
2023/04/02 07:00:46;;;;;;;6.68;4.15;;;;;;;10.98;100.00;99368.69;5007527;28;20104;-74
2023/04/02 07:03:16;;;;;;;7.22;4.35;;;;;;;11.04;100.00;99365.06;5003912;28;20053;-73
2023/04/02 07:05:42;;;;;;;8.07;3.33;;;;;;;10.90;100.00;99365.31;5000228;28;20056;-74
2023/04/02 07:08:07;;;;;;;8.98;4.32;;;;;;;10.92;100.00;99346.94;5013348;28;20474;-76
2023/04/02 07:10:33;;;;;;;5.88;4.15;;;;;;;10.99;100.00;99354.66;5010224;28;20720;-77
2023/04/02 07:13:01;;;;;;;7.47;4.43;;;;;;;10.52;100.00;99293.41;5007715;28;20046;-72
2023/04/02 07:15:27;;;;;;;5.25;3.35;;;;;;;10.43;100.00;99280.47;5005858;28;20573;-72
2023/04/02 07:17:56;;;;;;;5.65;3.13;;;;;;;10.76;100.00;99346.34;5002836;28;20149;-72
2023/04/02 07:20:32;;;;;;;7.20;3.40;;;;;;;11.02;100.00;99376.50;5000630;28;20104;-73
2023/04/02 07:22:57;;;;;;;5.55;2.50;;;;;;;10.55;100.00;99271.50;5005532;28;20069;-73
2023/04/02 07:25:25;;;;;;;5.78;2.97;;;;;;;10.45;100.00;99256.84;5013641;28;20110;-72
2023/04/02 07:27:52;;;;;;;6.53;3.03;;;;;;;10.26;100.00;99262.38;5000564;28;20053;-73
2023/04/02 07:30:18;;;;;;;7.60;3.67;;;;;;;10.29;100.00;99316.56;5008586;28;20069;-74
2023/04/02 07:32:43;;;;;;;6.68;3.58;;;;;;;10.42;100.00;99284.00;5009129;28;20041;-72
2023/04/02 07:35:09;;;;;;;6.22;3.60;;;;;;;10.49;100.00;99295.25;5002637;28;20101;-72
2023/04/02 07:37:37;;;;;;;8.48;3.58;;;;;;;11.03;100.00;99410.59;4992502;28;20046;-73
2023/04/02 07:40:05;;;;;;;8.32;3.30;;;;;;;10.98;100.00;99388.81;5017695;28;20061;-73
2023/04/02 07:42:30;;;;;;;7.07;3.50;;;;;;;10.87;100.00;99398.63;5002305;28;20093;-72
2023/04/02 07:44:56;;;;;;;5.20;3.42;;;;;;;10.45;100.00;99293.56;5005994;28;20819;-72
2023/04/02 07:47:21;;;;;;;4.32;2.75;;;;;;;11.23;100.00;99410.22;5004222;28;20139;-72
2023/04/02 07:49:47;;;;;;;6.88;3.40;;;;;;;10.66;100.00;99310.69;5008282;28;20041;-72
2023/04/02 07:52:12;;;;;;;7.45;4.13;;;;;;;11.09;100.00;99376.34;5004875;28;20064;-73
2023/04/02 07:54:38;;;;;;;8.43;3.53;;;;;;;11.17;100.00;99394.59;5007298;28;20510;-74
2023/04/02 07:57:04;;;;;;;4.53;2.90;;;;;;;10.92;100.00;99404.66;5004580;28;20057;-72
2023/04/02 07:59:30;;;;;;;5.88;3.45;;;;;;;10.43;100.00;99284.84;5006050;28;20049;-72
2023/04/02 08:01:56;;;;;;;6.32;3.20;;;;;;;10.34;100.00;99267.50;5003416;28;20029;-73
2023/04/02 08:04:22;;;;;;;8.98;4.15;;;;;;;10.61;100.00;99286.28;5004899;28;20183;-74
2023/04/02 08:06:48;;;;;;;7.75;3.50;;;;;;;11.01;100.00;99367.75;5002415;28;20058;-73
2023/04/02 08:09:15;;;;;;;5.78;3.97;;;;;;;11.15;100.00;99415.63;5000343;28;20153;-74
2023/04/02 08:11:41;;;;;;;6.38;4.38;;;;;;;10.57;100.00;99281.06;5006982;28;20042;-74
2023/04/02 08:14:10;;;;;;;5.65;3.08;;;;;;;11.22;100.00;99394.50;5002109;28;20038;-72
2023/04/02 08:16:53;;;;;;;5.97;3.20;;;;;;;10.69;100.00;99302.75;5002254;28;20073;-72
2023/04/02 08:19:19;;;;;;;10.32;4.78;;;;;;;11.18;100.00;99370.91;5003515;28;20054;-73
2023/04/02 08:21:45;;;;;;;9.45;4.07;;;;;;;10.37;100.00;99233.34;5007202;28;20045;-72
2023/04/02 08:24:10;;;;;;;6.43;4.47;;;;;;;11.15;100.00;99370.97;4998977;28;20045;-73
2023/04/02 08:26:36;;;;;;;9.07;3.92;;;;;;;11.15;100.00;99336.84;5001491;28;20053;-72
2023/04/02 08:29:02;;;;;;;10.23;4.55;;;;;;;11.20;100.00;99363.00;5007696;28;20164;-71
2023/04/02 08:31:29;;;;;;;9.98;5.55;;;;;;;11.24;100.00;99355.94;5006724;28;20398;-71
2023/04/02 08:34:01;;;;;;;8.40;4.72;;;;;;;10.61;100.00;99216.31;5017228;27;20621;-71
2023/04/02 08:36:31;;;;;;;9.48;5.03;;;;;;;11.33;100.00;99324.22;5018612;28;20496;-71
2023/04/02 08:38:57;;;;;;;7.60;5.57;;;;;;;11.22;100.00;99294.72;5011367;28;20115;-72
2023/04/02 08:41:29;;;;;;;13.80;5.50;;;;;;;11.13;100.00;99265.13;5012136;28;20518;-71
2023/04/02 08:44:19;;;;;;;9.93;5.93;;;;;;;10.93;100.00;99213.06;5000734;28;20034;-71
2023/04/02 08:47:07;;;;;;;10.68;6.05;;;;;;;11.14;100.00;99279.09;4999976;28;20050;-72
2023/04/02 08:49:45;;;;;;;9.77;5.85;;;;;;;10.12;100.00;99188.38;5003977;28;20537;-72
2023/04/02 08:52:22;;;;;;;9.43;6.63;;;;;;;10.69;100.00;99273.88;5002246;28;20565;-73
2023/04/02 08:54:49;;;;;;;10.25;6.50;;;;;;;10.68;100.00;99206.56;5003682;28;20543;-73
2023/04/02 08:57:24;;;;;;;15.18;7.38;;;;;;;11.19;100.00;99283.38;5002206;28;20073;-73
2023/04/02 08:59:58;;;;;;;11.48;6.65;;;;;;;10.93;100.00;99230.53;5002772;28;20069;-73
2023/04/02 09:02:38;;;;;;;11.25;6.20;;;;;;;11.14;100.00;99286.97;5001191;28;20046;-73
2023/04/02 09:05:06;;;;;;;9.95;6.45;;;;;;;11.13;100.00;99257.25;4997696;28;20120;-73
2023/04/02 09:07:32;;;;;;;16.55;7.93;;;;;;;11.49;100.00;99327.41;5001988;28;20494;-72
2023/04/02 09:09:59;;;;;;;12.60;7.60;;;;;;;11.46;100.00;99332.72;4998579;28;20162;-72
2023/04/02 09:12:28;;;;;;;10.38;6.93;;;;;;;11.35;100.00;99315.41;5032308;28;20137;-74
2023/04/02 09:14:54;;;;;;;16.98;7.82;;;;;;;11.49;100.00;99323.00;5000944;28;20573;-74
2023/04/02 09:17:23;;;;;;;92.60;51.53;;;;;;;10.96;100.00;99235.75;5002417;28;20128;-74
2023/04/02 09:19:56;;;;;;;18.33;11.98;;;;;;;11.41;100.00;99301.31;5007166;28;20046;-73
2023/04/02 09:22:29;;;;;;;;;;;;;;;11.75;100.00;99334.72;5000859;28;20057;-74
2023/04/02 09:24:56;;;;;;;13.07;7.78;;;;;;;12.07;100.00;99325.28;4997059;28;20645;-73
2023/04/02 09:27:28;;;;;;;13.25;8.57;;;;;;;12.03;100.00;99335.88;5003072;28;20145;-72
2023/04/02 09:30:19;;;;;;;11.18;7.30;;;;;;;11.91;100.00;99324.75;5002049;28;20042;-73
2023/04/02 09:32:47;;;;;;;10.75;7.63;;;;;;;12.73;100.00;99340.28;4999917;28;20046;-73
2023/04/02 09:35:22;;;;;;;12.88;7.05;;;;;;;12.21;100.00;99357.38;4999042;28;20025;-73
2023/04/02 09:38:21;;;;;;;11.20;7.45;;;;;;;12.02;100.00;99352.53;4999697;28;20038;-73
2023/04/02 09:40:52;;;;;;;10.00;6.25;;;;;;;12.09;100.00;99355.91;4996264;28;20058;-72
2023/04/02 09:43:23;;;;;;;13.65;8.00;;;;;;;11.20;100.00;99227.34;4997713;28;20116;-72
2023/04/02 09:45:59;;;;;;;14.63;6.60;;;;;;;12.10;100.00;99362.88;4986657;28;20185;-74
2023/04/02 09:48:44;;;;;;;11.13;6.47;;;;;;;12.12;100.00;99360.22;4987541;28;20058;-75
2023/04/02 09:51:21;;;;;;;11.20;8.20;;;;;;;12.07;100.00;99320.03;4987064;28;20847;-74
2023/04/02 09:54:00;;;;;;;9.18;6.43;;;;;;;10.90;100.00;99146.63;4988853;28;20054;-73
2023/04/02 09:56:26;;;;;;;8.23;6.25;;;;;;;12.38;100.00;99359.59;4987262;28;20170;-76
2023/04/02 09:59:11;;;;;;;9.13;6.95;;;;;;;11.91;100.00;99277.44;4985883;28;20561;-78
2023/04/02 10:01:46;;;;;;;10.52;6.82;;;;;;;12.18;100.00;99353.06;4987698;28;20070;-79
2023/04/02 10:04:37;;;;;;;9.77;6.40;;;;;;;13.13;100.00;99362.03;4987954;28;20046;-73
2023/04/02 10:07:05;;;;;;;7.63;5.70;;;;;;;15.67;100.00;99329.16;4988600;28;20141;-71
2023/04/02 10:09:34;;;;;;;19.60;10.95;;;;;;;16.45;100.00;99518.50;4987751;28;20402;-76
2023/04/02 10:12:03;;;;;;;204.80;115.07;;;;;;;16.64;100.00;99469.16;4987987;28;20108;-77
2023/04/02 10:14:42;;;;;;;656.20;442.75;;;;;;;17.74;100.00;99566.28;4985275;28;20364;-77
2023/04/02 10:17:18;;;;;;;323.67;168.57;;;;;;;17.59;100.00;99559.84;4985617;28;20053;-76
2023/04/02 10:19:54;;;;;;;318.45;166.55;;;;;;;17.63;100.00;99548.19;4981536;28;20129;-80
2023/04/02 10:22:21;;;;;;;232.55;119.78;;;;;;;18.29;100.00;99637.38;4987956;28;20058;-77
2023/04/02 10:24:48;;;;;;;252.98;128.27;;;;;;;18.48;100.00;99589.59;4988759;28;20499;-73
2023/04/02 10:27:50;;;;;;;117.88;59.17;;;;;;;17.87;100.00;99518.88;4987207;28;20050;-77
2023/04/02 10:30:23;;;;;;;142.30;75.85;;;;;;;18.20;100.00;99638.66;4986053;28;20085;-74
2023/04/02 10:33:04;;;;;;;110.68;49.05;;;;;;;16.63;100.00;99602.53;4986175;28;20104;-76
2023/04/02 10:36:11;;;;;;;84.45;42.30;;;;;;;16.01;100.00;99600.41;4988293;28;20129;-74
2023/04/02 10:38:43;;;;;;;51.42;27.27;;;;;;;16.59;100.00;99586.81;4988618;28;20125;-75
2023/04/02 10:41:22;;;;;;;88.32;46.40;;;;;;;16.93;100.00;99606.72;5004294;28;20081;-76
2023/04/02 10:44:24;;;;;;;39.95;19.65;;;;;;;15.74;100.00;99603.09;4989808;28;20049;-75
2023/04/02 10:47:21;;;;;;;31.42;14.52;;;;;;;16.40;100.00;99618.44;4989012;28;20054;-77
2023/04/02 10:50:01;;;;;;;14.90;10.13;;;;;;;15.26;100.00;99601.13;4988537;28;20046;-76
2023/04/02 10:53:00;;;;;;;36.83;18.85;;;;;;;15.91;100.00;99580.50;4989522;28;20503;-78
2023/04/02 10:55:31;;;;;;;35.03;17.95;;;;;;;17.34;100.00;99602.44;4979415;28;20073;-76
2023/04/02 10:58:03;;;;;;;19.63;12.75;;;;;;;16.66;100.00;99620.09;4989259;28;20232;-77
2023/04/02 11:00:35;;;;;;;19.42;9.82;;;;;;;17.08;100.00;99640.59;4989615;28;20414;-77
2023/04/02 11:03:12;;;;;;;13.73;7.22;;;;;;;15.76;100.00;99625.09;4989724;28;20070;-76
2023/04/02 11:05:54;;;;;;;14.40;8.68;;;;;;;15.15;100.00;99592.72;4987863;28;20108;-76
2023/04/02 11:08:26;;;;;;;33.45;13.98;;;;;;;16.17;100.00;99577.75;4987876;28;20044;-76
2023/04/02 11:11:08;;;;;;;13.15;8.18;;;;;;;16.95;100.00;99547.47;4989679;28;20034;-74
2023/04/02 11:13:58;;;;;;;10.83;6.07;;;;;;;17.29;100.00;99639.75;4974046;28;20046;-77
2023/04/02 11:16:24;;;;;;;15.95;8.10;;;;;;;16.51;100.00;99620.69;4984094;28;20464;-77
2023/04/02 11:19:14;;;;;;;9.80;5.38;;;;;;;14.95;100.00;99659.38;4972743;28;20488;-76
2023/04/02 11:21:50;;;;;;;11.55;6.88;;;;;;;17.11;100.00;99629.00;4973386;28;20489;-76
2023/04/02 11:24:31;;;;;;;15.23;6.90;;;;;;;18.20;100.00;99673.16;4988471;28;20065;-76
2023/04/02 11:27:09;;;;;;;14.48;6.53;;;;;;;17.69;100.00;99677.91;4985399;28;20062;-75
2023/04/02 11:30:01;;;;;;;8.57;5.28;;;;;;;16.37;100.00;99668.84;4994624;28;20062;-75
2023/04/02 11:32:34;;;;;;;14.48;6.45;;;;;;;16.50;100.00;99653.38;4981761;28;20133;-75
2023/04/02 11:35:19;;;;;;;10.70;5.53;;;;;;;15.96;100.00;99615.59;5013611;28;20023;-75
2023/04/02 11:37:45;;;;;;;10.18;6.65;;;;;;;17.04;100.00;99670.78;4987767;28;20403;-76
2023/04/02 11:40:11;;;;;;;8.68;5.65;;;;;;;14.94;100.00;99568.69;4988361;28;20054;-76
2023/04/02 11:42:39;;;;;;;6.75;5.05;;;;;;;14.32;100.00;99626.81;4988685;28;20287;-75
2023/04/02 11:45:26;;;;;;;7.78;5.30;;;;;;;15.68;100.00;99620.94;4988229;28;20403;-77
2023/04/02 11:47:59;;;;;;;8.10;5.10;;;;;;;16.90;100.00;99678.41;4972439;28;20066;-76
2023/04/02 11:50:39;;;;;;;8.05;4.07;;;;;;;17.14;100.00;99664.22;4986727;28;20191;-76
2023/04/02 11:53:11;;;;;;;14.07;5.15;;;;;;;14.46;100.00;99642.28;4987492;28;20104;-77
2023/04/02 11:55:44;;;;;;;10.68;5.50;;;;;;;13.76;100.00;99587.88;4989732;28;20044;-75
2023/04/02 11:58:21;;;;;;;7.25;4.45;;;;;;;13.69;100.00;99596.88;4987741;28;20062;-75
2023/04/02 12:01:15;;;;;;;7.82;5.18;;;;;;;13.81;100.00;99571.94;4988012;28;20473;-76
2023/04/02 12:03:46;;;;;;;6.97;5.07;;;;;;;13.66;100.00;99560.03;4975808;28;20050;-76